Terminal Aerodrome Forecast
Issued by NWS San Angelo, TX

Current Version | Previous Version | Text Only | Print | Product List | Glossary On
Versions: 1 2 3 4 5 6 7 8 9 10 11 12 13 14 15 16 17 18 19 20 21
000
FTUS44 KSJT 251100
TAFABI
TAF
KABI 251125Z 2512/2612 15008KT P6SM BKN019
     FM251300 16012KT P6SM VCTS BKN019CB
     FM251500 17012G20KT 5SM TSRA BKN025CB
      TEMPO 2515/2518 VRB20G30KT 2SM TSRA BR BKN040CB
     FM251800 17015G23KT P6SM VCTS BKN025CB
     FM252100 24010KT P6SM BKN120=

USA.gov is the U.S. government's official web portal to all federal, state and local government web resources and services.